createdAt,value
2023-02-09T00:02:50.701Z,47.30
2023-02-09T00:07:54.451Z,50.90
2023-02-09T00:13:16.513Z,46.80
2023-02-09T00:18:20.775Z,54.20
2023-02-09T00:23:25.092Z,57.50
2023-02-09T00:28:29.851Z,51.70
2023-02-09T00:33:33.492Z,57.80
2023-02-09T00:38:37.860Z,55.00
2023-02-09T00:43:41.597Z,47.80
2023-02-09T00:48:45.240Z,52.50
2023-02-09T00:53:48.895Z,53.80
2023-02-09T00:58:53.049Z,54.20
2023-02-09T01:03:57.219Z,55.70
2023-02-09T01:09:01.738Z,49.70
2023-02-09T01:14:05.431Z,46.70
2023-02-09T01:19:12.426Z,50.80
2023-02-09T01:24:16.549Z,55.90
2023-02-09T01:29:21.515Z,48.50
2023-02-09T01:34:25.108Z,45.40
2023-02-09T01:39:28.882Z,47.30
2023-02-09T01:45:02.536Z,51.00
2023-02-09T01:50:06.678Z,47.60
2023-02-09T01:55:16.041Z,49.90
2023-02-09T02:00:20.850Z,48.30
2023-02-09T02:05:25.795Z,51.40
2023-02-09T02:10:31.303Z,47.70
2023-02-09T02:15:47.957Z,48.80
2023-02-09T02:21:14.568Z,53.60
2023-02-09T02:26:55.843Z,44.90
2023-02-09T02:32:05.603Z,45.50
2023-02-09T02:37:53.909Z,45.60
2023-02-09T02:43:27.576Z,45.80
2023-02-09T02:49:15.220Z,44.80
2023-02-09T02:54:27.934Z,43.80
2023-02-09T02:59:37.220Z,41.80
2023-02-09T03:04:41.597Z,41.20
2023-02-09T03:09:57.790Z,37.80
2023-02-09T03:15:15.397Z,31.10
2023-02-09T03:20:59.179Z,34.70
2023-02-09T03:26:10.877Z,35.10
2023-02-09T03:31:14.735Z,38.00
2023-02-09T03:41:23.218Z,37.70
2023-02-09T03:46:27.003Z,35.50
2023-02-09T03:56:38.549Z,40.80
2023-02-09T04:01:43.459Z,53.30
2023-02-09T04:06:48.538Z,45.80
2023-02-09T04:11:52.510Z,65.30
2023-02-09T04:16:56.533Z,94.80
2023-02-09T04:22:01.293Z,96.40
2023-02-09T04:27:06.716Z,97.10
2023-02-09T04:32:10.902Z,70.10
2023-02-09T04:37:15.386Z,81.10
2023-02-09T04:42:19.028Z,58.50
2023-02-09T04:47:22.626Z,60.90
2023-02-09T04:52:26.277Z,51.90
2023-02-09T04:57:48.721Z,55.30
2023-02-09T05:02:52.483Z,46.90
2023-02-09T05:07:56.239Z,46.80
2023-02-09T05:12:59.940Z,48.60
2023-02-09T05:18:03.617Z,45.70
2023-02-09T05:23:07.375Z,43.60
2023-02-09T05:28:11.058Z,41.90
2023-02-09T05:33:14.648Z,45.20
2023-02-09T05:38:18.724Z,52.00
2023-02-09T05:43:22.470Z,47.80
2023-02-09T05:48:26.444Z,47.00
2023-02-09T05:53:32.702Z,41.10
2023-02-09T05:58:36.556Z,44.50
2023-02-09T06:03:40.265Z,45.20
2023-02-09T06:08:44.158Z,49.40
2023-02-09T06:13:48.597Z,47.60
2023-02-09T06:18:52.867Z,46.40
2023-02-09T06:23:56.635Z,41.80
2023-02-09T06:29:00.995Z,39.70
2023-02-09T06:34:06.824Z,46.60
2023-02-09T06:39:10.907Z,46.20
2023-02-09T06:44:14.809Z,44.70
2023-02-09T06:49:19.349Z,44.70
2023-02-09T06:54:24.155Z,44.00
2023-02-09T06:59:37.030Z,40.80
2023-02-09T07:04:45.600Z,40.50
2023-02-09T07:09:51.234Z,39.90
2023-02-09T07:15:00.146Z,38.00
2023-02-09T07:20:07.029Z,34.00
2023-02-09T07:25:12.483Z,29.60
2023-02-09T07:30:16.864Z,28.50
2023-02-09T07:35:35.689Z,23.00
2023-02-09T07:41:08.989Z,19.70
2023-02-09T07:46:23.756Z,20.20
2023-02-09T07:51:34.400Z,17.40
2023-02-09T07:56:42.248Z,16.50
2023-02-09T08:02:21.967Z,13.50
2023-02-09T08:22:14.202Z,10.00
2023-02-09T08:27:48.676Z,10.20
2023-02-09T08:33:54.088Z,7.60
2023-02-09T08:39:11.206Z,10.00
2023-02-09T08:44:21.305Z,9.90
2023-02-09T08:49:25.614Z,9.10
2023-02-09T08:54:32.501Z,9.50
2023-02-09T08:59:46.330Z,10.50
2023-02-09T09:19:52.235Z,9.00
2023-02-09T09:48:08.561Z,7.70
2023-02-09T10:11:07.089Z,7.30
2023-02-09T10:51:46.994Z,5.60
2023-02-09T10:57:40.752Z,5.20
2023-02-09T11:03:48.864Z,6.10
2023-02-09T11:10:05.457Z,5.10
2023-02-09T11:16:24.590Z,7.20
2023-02-09T11:22:55.580Z,6.10
2023-02-09T11:29:29.441Z,5.90
2023-02-09T11:35:57.289Z,6.10
2023-02-09T11:43:07.167Z,4.50
2023-02-09T11:49:32.966Z,6.30
2023-02-09T11:56:07.961Z,5.20
2023-02-09T12:02:32.502Z,5.70
2023-02-09T12:08:53.075Z,5.30
2023-02-09T12:15:09.740Z,4.80
2023-02-09T12:21:46.245Z,5.30
2023-02-09T12:27:54.413Z,6.50
2023-02-09T12:34:04.705Z,5.60
2023-02-09T12:40:21.609Z,5.10
2023-02-09T12:46:32.894Z,5.40
2023-02-09T12:53:02.520Z,4.70
2023-02-09T12:59:51.084Z,5.50
2023-02-09T13:06:22.644Z,6.60
2023-02-09T13:20:20.775Z,5.20
2023-02-09T13:26:46.639Z,6.20
2023-02-09T13:33:20.381Z,6.30
2023-02-09T13:39:19.449Z,6.00
2023-02-09T13:45:35.376Z,6.90
2023-02-09T13:51:35.608Z,7.30
2023-02-09T13:57:29.950Z,8.40
2023-02-09T14:03:28.680Z,6.80
2023-02-09T14:09:38.974Z,7.00
2023-02-09T14:15:50.171Z,8.80
2023-02-09T14:21:16.667Z,7.50
2023-02-09T14:27:47.206Z,7.00
2023-02-09T14:33:41.752Z,8.70
2023-02-09T14:39:54.431Z,9.30
2023-02-09T14:52:36.826Z,9.70
2023-02-09T14:59:14.111Z,10.00
2023-02-09T15:05:26.380Z,10.30
2023-02-09T15:11:45.348Z,13.00
2023-02-09T15:17:52.037Z,11.90
2023-02-09T15:23:28.974Z,10.90
2023-02-09T15:28:53.097Z,10.10
2023-02-09T15:34:54.312Z,11.00
2023-02-09T15:41:51.889Z,9.90
2023-02-09T15:48:33.429Z,10.50
2023-02-09T15:54:06.127Z,11.30
2023-02-09T15:59:35.610Z,10.60
2023-02-09T16:04:46.671Z,10.50
2023-02-09T16:10:52.818Z,11.30
2023-02-09T16:17:02.320Z,11.20
2023-02-09T16:23:27.830Z,11.20
2023-02-09T16:37:21.135Z,14.20
2023-02-09T16:43:44.667Z,17.50
2023-02-09T16:49:19.423Z,16.50
2023-02-09T16:55:29.658Z,16.60
2023-02-09T17:02:00.393Z,16.20
2023-02-09T17:15:28.424Z,40.00
2023-02-09T17:22:00.105Z,31.70
2023-02-09T17:28:29.042Z,27.40
2023-02-09T17:34:55.922Z,22.70
2023-02-09T17:41:26.010Z,19.10
2023-02-09T17:47:55.387Z,17.20
2023-02-09T17:54:21.116Z,20.10
2023-02-09T18:00:30.888Z,16.20
2023-02-09T18:07:10.417Z,25.00
2023-02-09T18:19:35.555Z,15.40
2023-02-09T18:25:40.922Z,15.40
2023-02-09T18:31:50.692Z,13.90
2023-02-09T18:38:07.511Z,13.20
2023-02-09T18:44:17.475Z,14.20
2023-02-09T18:49:57.742Z,15.20
2023-02-09T18:55:25.555Z,15.50
2023-02-09T19:01:08.611Z,15.80
2023-02-09T19:07:34.870Z,14.10
2023-02-09T19:13:22.064Z,15.40
2023-02-09T19:18:42.149Z,15.80
2023-02-09T19:23:52.266Z,21.50
2023-02-09T19:29:29.043Z,16.10
2023-02-09T19:34:47.572Z,15.60
2023-02-09T19:40:05.785Z,13.40
2023-02-09T19:45:17.781Z,14.40
2023-02-09T19:50:24.580Z,17.60
2023-02-09T19:55:36.313Z,18.10
2023-02-09T20:00:44.571Z,14.50
2023-02-09T20:05:53.520Z,14.60
2023-02-09T20:11:20.756Z,21.00
2023-02-09T20:16:31.945Z,15.20
2023-02-09T20:21:48.127Z,17.00
2023-02-09T20:27:05.996Z,15.40
2023-02-09T20:32:14.492Z,15.90
2023-02-09T20:37:29.916Z,14.70
2023-02-09T20:42:56.116Z,11.90
2023-02-09T20:48:06.134Z,12.30
2023-02-09T20:53:35.419Z,12.70
2023-02-09T20:58:44.384Z,12.30
2023-02-09T21:04:19.165Z,12.10
2023-02-09T21:09:38.086Z,11.30
2023-02-09T21:14:49.919Z,12.30
2023-02-09T21:19:55.786Z,11.60
2023-02-09T21:25:11.338Z,12.20
2023-02-09T21:30:30.772Z,12.50
2023-02-09T21:35:39.155Z,11.60
2023-02-09T21:40:53.571Z,12.10
2023-02-09T21:46:00.325Z,11.70
2023-02-09T21:51:14.163Z,12.30
2023-02-09T21:56:26.535Z,13.30
2023-02-09T22:01:35.165Z,11.60
2023-02-09T22:06:39.731Z,12.00
2023-02-09T22:11:44.489Z,11.90
2023-02-09T22:16:51.340Z,12.40
2023-02-09T22:21:58.830Z,12.50
2023-02-09T22:27:04.735Z,12.80
2023-02-09T22:32:14.214Z,13.00
2023-02-09T22:37:18.906Z,11.40
2023-02-09T22:42:23.048Z,12.90
2023-02-09T22:47:27.786Z,12.90
2023-02-09T22:52:32.642Z,13.60
2023-02-09T22:57:39.947Z,14.30
2023-02-09T23:02:56.360Z,13.10
2023-02-09T23:08:01.025Z,14.10
2023-02-09T23:13:08.986Z,13.00
2023-02-09T23:18:22.145Z,12.50
2023-02-09T23:23:27.425Z,13.10
2023-02-09T23:28:57.227Z,14.30
2023-02-09T23:34:07.798Z,12.90
2023-02-09T23:39:15.837Z,11.60
2023-02-09T23:44:20.262Z,11.90
2023-02-09T23:49:25.630Z,12.00
2023-02-09T23:54:31.693Z,12.80
2023-02-09T23:59:49.010Z,12.30
